sensor_id;sensor_type;location;lat;lon;timestamp;pressure;altitude;pressure_sealevel;temperature;humidity
3780;BME280;1905;52.482;9.802;2023-10-31T00:00:18;98950.19;;;13.23;95.61
3780;BME280;1905;52.482;9.802;2023-10-31T00:02:45;98961.88;;;13.20;95.61
3780;BME280;1905;52.482;9.802;2023-10-31T00:05:13;98952.13;;;13.21;95.21
3780;BME280;1905;52.482;9.802;2023-10-31T00:07:43;98952.94;;;13.21;95.39
3780;BME280;1905;52.482;9.802;2023-10-31T00:10:10;98958.84;;;13.25;95.37
3780;BME280;1905;52.482;9.802;2023-10-31T00:12:38;98959.94;;;13.22;95.03
3780;BME280;1905;52.482;9.802;2023-10-31T00:15:07;98955.72;;;13.20;95.43
3780;BME280;1905;52.482;9.802;2023-10-31T00:17:35;98958.25;;;13.21;95.53
3780;BME280;1905;52.482;9.802;2023-10-31T00:20:03;98952.94;;;13.21;95.51
3780;BME280;1905;52.482;9.802;2023-10-31T00:22:31;98938.13;;;13.19;95.37
3780;BME280;1905;52.482;9.802;2023-10-31T00:24:59;98933.44;;;13.22;95.33
3780;BME280;1905;52.482;9.802;2023-10-31T00:27:27;98934.53;;;13.20;95.74
3780;BME280;1905;52.482;9.802;2023-10-31T00:29:54;98938.03;;;13.20;95.93
3780;BME280;1905;52.482;9.802;2023-10-31T00:32:23;98936.22;;;13.21;95.07
3780;BME280;1905;52.482;9.802;2023-10-31T00:34:52;98937.28;;;13.18;95.47
3780;BME280;1905;52.482;9.802;2023-10-31T00:37:20;98941.78;;;13.18;95.28
3780;BME280;1905;52.482;9.802;2023-10-31T00:39:47;98938.97;;;13.19;95.53
3780;BME280;1905;52.482;9.802;2023-10-31T00:42:15;98939.81;;;13.20;95.34
3780;BME280;1905;52.482;9.802;2023-10-31T00:44:43;98938.88;;;13.21;95.00
3780;BME280;1905;52.482;9.802;2023-10-31T00:47:11;98938.97;;;13.19;94.81
3780;BME280;1905;52.482;9.802;2023-10-31T00:49:40;98930.19;;;13.19;95.90
3780;BME280;1905;52.482;9.802;2023-10-31T00:52:07;98925.03;;;13.17;95.50
3780;BME280;1905;52.482;9.802;2023-10-31T00:54:35;98937.28;;;13.18;95.15
3780;BME280;1905;52.482;9.802;2023-10-31T00:57:03;98928.38;;;13.19;95.38
3780;BME280;1905;52.482;9.802;2023-10-31T00:59:31;98928.53;;;13.18;95.69
3780;BME280;1905;52.482;9.802;2023-10-31T01:01:58;98936.34;;;13.19;95.54
3780;BME280;1905;52.482;9.802;2023-10-31T01:04:26;98934.38;;;13.21;95.42
3780;BME280;1905;52.482;9.802;2023-10-31T01:06:55;98933.69;;;13.19;95.26
3780;BME280;1905;52.482;9.802;2023-10-31T01:09:23;98930.06;;;13.20;95.03
3780;BME280;1905;52.482;9.802;2023-10-31T01:11:51;98930.31;;;13.17;95.61
3780;BME280;1905;52.482;9.802;2023-10-31T01:14:18;98924.78;;;13.20;95.92
3780;BME280;1905;52.482;9.802;2023-10-31T01:16:46;98908.03;;;13.20;95.00
3780;BME280;1905;52.482;9.802;2023-10-31T01:19:14;98912.47;;;13.19;95.00
3780;BME280;1905;52.482;9.802;2023-10-31T01:21:41;98909.72;;;13.21;95.15
3780;BME280;1905;52.482;9.802;2023-10-31T01:24:10;98909.72;;;13.21;95.14
3780;BME280;1905;52.482;9.802;2023-10-31T01:26:38;98906.22;;;13.20;94.97
3780;BME280;1905;52.482;9.802;2023-10-31T01:29:06;98906.31;;;13.19;95.58
3780;BME280;1905;52.482;9.802;2023-10-31T01:31:33;98908.03;;;13.20;95.14
3780;BME280;1905;52.482;9.802;2023-10-31T01:34:21;98909.72;;;13.21;95.11
3780;BME280;1905;52.482;9.802;2023-10-31T01:36:49;98909.81;;;13.19;95.52
3780;BME280;1905;52.482;9.802;2023-10-31T01:39:18;98911.50;;;13.20;95.21
3780;BME280;1905;52.482;9.802;2023-10-31T01:41:45;98914.16;;;13.20;95.14
3780;BME280;1905;52.482;9.802;2023-10-31T01:44:13;98908.88;;;13.20;94.67
3780;BME280;1905;52.482;9.802;2023-10-31T01:46:41;98908.88;;;13.20;94.90
3780;BME280;1905;52.482;9.802;2023-10-31T01:49:09;98899.22;;;13.19;95.03
3780;BME280;1905;52.482;9.802;2023-10-31T01:51:36;98893.91;;;13.19;94.84
3780;BME280;1905;52.482;9.802;2023-10-31T01:54:04;98886.81;;;13.20;95.22
3780;BME280;1905;52.482;9.802;2023-10-31T01:56:35;98886.81;;;13.20;95.12
3780;BME280;1905;52.482;9.802;2023-10-31T01:59:04;98875.38;;;13.19;94.81
3780;BME280;1905;52.482;9.802;2023-10-31T02:01:32;98877.06;;;13.20;95.01
3780;BME280;1905;52.482;9.802;2023-10-31T02:04:03;98873.41;;;13.21;95.08
3780;BME280;1905;52.482;9.802;2023-10-31T02:06:31;98864.75;;;13.19;95.42
3780;BME280;1905;52.482;9.802;2023-10-31T02:08:59;98862.81;;;13.21;94.96
3780;BME280;1905;52.482;9.802;2023-10-31T02:11:27;98865.47;;;13.21;95.31
3780;BME280;1905;52.482;9.802;2023-10-31T02:13:56;98860.31;;;13.20;95.02
3780;BME280;1905;52.482;9.802;2023-10-31T02:16:23;98856.81;;;13.19;95.15
3780;BME280;1905;52.482;9.802;2023-10-31T02:18:52;98848.00;;;13.19;95.01
3780;BME280;1905;52.482;9.802;2023-10-31T02:21:20;98855.13;;;13.18;94.97
3780;BME280;1905;52.482;9.802;2023-10-31T02:23:59;98853.31;;;13.19;95.22
3780;BME280;1905;52.482;9.802;2023-10-31T02:26:31;98847.16;;;13.18;95.01
3780;BME280;1905;52.482;9.802;2023-10-31T02:28:59;98847.16;;;13.18;94.81
3780;BME280;1905;52.482;9.802;2023-10-31T02:31:27;98853.44;;;13.17;95.22
3780;BME280;1905;52.482;9.802;2023-10-31T02:33:55;98851.75;;;13.16;95.12
3780;BME280;1905;52.482;9.802;2023-10-31T02:36:22;98858.75;;;13.17;94.98
3780;BME280;1905;52.482;9.802;2023-10-31T02:38:50;98860.56;;;13.17;95.27
3780;BME280;1905;52.482;9.802;2023-10-31T02:41:19;98864.06;;;13.17;94.74
3780;BME280;1905;52.482;9.802;2023-10-31T02:43:47;98863.06;;;13.18;95.15
3780;BME280;1905;52.482;9.802;2023-10-31T02:46:14;98855.13;;;13.18;94.74
3780;BME280;1905;52.482;9.802;2023-10-31T02:48:42;98849.81;;;13.18;95.28
3780;BME280;1905;52.482;9.802;2023-10-31T02:51:10;98841.84;;;13.18;95.52
3780;BME280;1905;52.482;9.802;2023-10-31T02:53:38;98836.56;;;13.18;95.91
3780;BME280;1905;52.482;9.802;2023-10-31T02:56:07;98827.06;;;13.16;95.63
3780;BME280;1905;52.482;9.802;2023-10-31T02:58:36;98834.91;;;13.17;95.32
3780;BME280;1905;52.482;9.802;2023-10-31T03:01:03;98836.56;;;13.18;95.47
3780;BME280;1905;52.482;9.802;2023-10-31T03:03:31;98831.25;;;13.18;95.34
3780;BME280;1905;52.482;9.802;2023-10-31T03:05:59;98827.66;;;13.19;95.46
3780;BME280;1905;52.482;9.802;2023-10-31T03:08:27;98827.66;;;13.19;95.99
3780;BME280;1905;52.482;9.802;2023-10-31T03:10:54;98828.50;;;13.20;96.71
3780;BME280;1905;52.482;9.802;2023-10-31T03:13:22;98827.66;;;13.19;96.81
3780;BME280;1905;52.482;9.802;2023-10-31T03:15:51;98838.97;;;13.21;96.90
3780;BME280;1905;52.482;9.802;2023-10-31T03:18:19;98834.66;;;13.20;96.69
3780;BME280;1905;52.482;9.802;2023-10-31T03:20:46;98831.00;;;13.21;96.75
3780;BME280;1905;52.482;9.802;2023-10-31T03:23:14;98831.00;;;13.21;96.65
3780;BME280;1905;52.482;9.802;2023-10-31T03:25:42;98831.00;;;13.21;96.45
3780;BME280;1905;52.482;9.802;2023-10-31T03:28:18;98822.78;;;13.24;97.02
3780;BME280;1905;52.482;9.802;2023-10-31T03:30:46;98823.78;;;13.23;96.75
3780;BME280;1905;52.482;9.802;2023-10-31T03:33:16;98828.09;;;13.24;96.42
3780;BME280;1905;52.482;9.802;2023-10-31T03:35:43;98819.28;;;13.24;96.54
3780;BME280;1905;52.482;9.802;2023-10-31T03:38:12;98819.28;;;13.24;95.81
3780;BME280;1905;52.482;9.802;2023-10-31T03:40:41;98825.34;;;13.26;95.85
3780;BME280;1905;52.482;9.802;2023-10-31T03:43:11;98828.84;;;13.26;96.52
3780;BME280;1905;52.482;9.802;2023-10-31T03:45:38;98819.88;;;13.27;97.41
3780;BME280;1905;52.482;9.802;2023-10-31T03:48:06;98819.88;;;13.27;99.14
3780;BME280;1905;52.482;9.802;2023-10-31T03:50:35;98836.91;;;13.25;98.10
3780;BME280;1905;52.482;9.802;2023-10-31T03:53:03;98840.13;;;13.28;98.46
3780;BME280;1905;52.482;9.802;2023-10-31T03:55:31;98836.91;;;13.25;98.27
3780;BME280;1905;52.482;9.802;2023-10-31T03:57:58;98848.34;;;13.25;98.19
3780;BME280;1905;52.482;9.802;2023-10-31T04:00:26;98868.31;;;13.29;99.32
3780;BME280;1905;52.482;9.802;2023-10-31T04:02:55;98866.41;;;13.31;99.59
3780;BME280;1905;52.482;9.802;2023-10-31T04:05:23;98866.91;;;13.25;98.02
3780;BME280;1905;52.482;9.802;2023-10-31T04:07:52;98869.81;;;13.22;97.96
3780;BME280;1905;52.482;9.802;2023-10-31T04:10:20;98869.56;;;13.25;97.58
3780;BME280;1905;52.482;9.802;2023-10-31T04:12:47;98858.25;;;13.23;97.23
3780;BME280;1905;52.482;9.802;2023-10-31T04:15:15;98866.44;;;13.20;96.78
3780;BME280;1905;52.482;9.802;2023-10-31T04:17:43;98867.31;;;13.21;96.65
3780;BME280;1905;52.482;9.802;2023-10-31T04:20:11;98865.84;;;13.17;96.45
3780;BME280;1905;52.482;9.802;2023-10-31T04:22:38;98864.06;;;13.06;96.63
3780;BME280;1905;52.482;9.802;2023-10-31T04:25:08;98871.09;;;13.07;95.92
3780;BME280;1905;52.482;9.802;2023-10-31T04:27:36;98880.22;;;13.03;96.71
3780;BME280;1905;52.482;9.802;2023-10-31T04:30:04;98882.41;;;13.09;96.20
3780;BME280;1905;52.482;9.802;2023-10-31T04:32:32;98882.50;;;13.07;95.98
3780;BME280;1905;52.482;9.802;2023-10-31T04:35:00;98879.25;;;13.04;95.93
3780;BME280;1905;52.482;9.802;2023-10-31T04:37:27;98890.56;;;13.06;95.25
3780;BME280;1905;52.482;9.802;2023-10-31T04:39:58;98903.13;;;13.04;95.75
3780;BME280;1905;52.482;9.802;2023-10-31T04:42:27;98891.31;;;12.97;96.12
3780;BME280;1905;52.482;9.802;2023-10-31T04:44:55;98912.41;;;12.98;95.65
3780;BME280;1905;52.482;9.802;2023-10-31T04:47:22;98925.97;;;13.05;95.76
3780;BME280;1905;52.482;9.802;2023-10-31T04:49:50;98924.91;;;13.07;95.21
3780;BME280;1905;52.482;9.802;2023-10-31T04:52:18;98927.47;;;12.98;95.25
3780;BME280;1905;52.482;9.802;2023-10-31T04:54:46;98929.88;;;13.01;95.28
3780;BME280;1905;52.482;9.802;2023-10-31T04:57:13;98923.25;;;12.95;95.63
3780;BME280;1905;52.482;9.802;2023-10-31T04:59:42;98941.44;;;12.89;94.79
3780;BME280;1905;52.482;9.802;2023-10-31T05:02:10;98927.00;;;12.93;95.19
3780;BME280;1905;52.482;9.802;2023-10-31T05:04:38;98934.47;;;12.88;94.85
3780;BME280;1905;52.482;9.802;2023-10-31T05:07:06;98953.75;;;12.79;94.01
3780;BME280;1905;52.482;9.802;2023-10-31T05:09:35;98947.97;;;12.85;93.63
3780;BME280;1905;52.482;9.802;2023-10-31T05:12:03;98955.56;;;12.78;93.66
3780;BME280;1905;52.482;9.802;2023-10-31T05:14:31;98947.75;;;12.77;94.50
3780;BME280;1905;52.482;9.802;2023-10-31T05:17:00;98954.25;;;12.73;93.34
3780;BME280;1905;52.482;9.802;2023-10-31T05:19:27;98957.97;;;12.70;93.47
3780;BME280;1905;52.482;9.802;2023-10-31T05:21:55;98966.88;;;12.69;93.08
3780;BME280;1905;52.482;9.802;2023-10-31T05:24:23;98962.44;;;12.70;93.96
3780;BME280;1905;52.482;9.802;2023-10-31T05:26:50;98963.53;;;12.67;93.88
3780;BME280;1905;52.482;9.802;2023-10-31T05:29:18;98949.94;;;12.61;93.37
3780;BME280;1905;52.482;9.802;2023-10-31T05:31:46;98965.69;;;12.62;93.11
3780;BME280;1905;52.482;9.802;2023-10-31T05:34:15;98957.66;;;12.52;93.03
3780;BME280;1905;52.482;9.802;2023-10-31T05:36:42;98965.09;;;12.59;92.74
3780;BME280;1905;52.482;9.802;2023-10-31T05:39:10;98957.53;;;12.54;92.96
3780;BME280;1905;52.482;9.802;2023-10-31T05:41:38;98961.13;;;12.53;93.21
3780;BME280;1905;52.482;9.802;2023-10-31T05:44:05;98958.00;;;12.48;92.65
3780;BME280;1905;52.482;9.802;2023-10-31T05:46:37;98961.50;;;12.37;92.43
3780;BME280;1905;52.482;9.802;2023-10-31T05:49:06;98975.94;;;12.33;92.88
3780;BME280;1905;52.482;9.802;2023-10-31T05:51:35;98985.81;;;12.42;93.40
3780;BME280;1905;52.482;9.802;2023-10-31T05:54:03;98987.03;;;12.38;93.34
3780;BME280;1905;52.482;9.802;2023-10-31T05:56:33;98995.44;;;12.32;93.39
3780;BME280;1905;52.482;9.802;2023-10-31T05:59:01;98995.66;;;12.29;93.55
3780;BME280;1905;52.482;9.802;2023-10-31T06:01:29;99000.50;;;12.35;93.06
3780;BME280;1905;52.482;9.802;2023-10-31T06:03:56;99010.38;;;12.33;93.53
3780;BME280;1905;52.482;9.802;2023-10-31T06:06:24;99017.22;;;12.36;93.67
3780;BME280;1905;52.482;9.802;2023-10-31T06:08:53;99018.53;;;12.30;93.12
3780;BME280;1905;52.482;9.802;2023-10-31T06:11:21;99028.03;;;12.33;93.78
3780;BME280;1905;52.482;9.802;2023-10-31T06:13:48;99044.78;;;12.33;93.88
3780;BME280;1905;52.482;9.802;2023-10-31T06:16:16;99037.78;;;12.32;94.01
3780;BME280;1905;52.482;9.802;2023-10-31T06:18:44;99036.22;;;12.30;93.73
3780;BME280;1905;52.482;9.802;2023-10-31T06:21:11;99033.56;;;12.30;93.73
3780;BME280;1905;52.482;9.802;2023-10-31T06:23:39;99033.72;;;12.28;93.54
3780;BME280;1905;52.482;9.802;2023-10-31T06:26:08;99033.19;;;12.23;93.19
3780;BME280;1905;52.482;9.802;2023-10-31T06:28:37;99036.59;;;12.25;92.98
3780;BME280;1905;52.482;9.802;2023-10-31T06:31:18;99040.88;;;12.15;93.19
3780;BME280;1905;52.482;9.802;2023-10-31T06:33:45;99040.78;;;12.17;92.73
3780;BME280;1905;52.482;9.802;2023-10-31T06:36:13;99045.94;;;12.18;93.39
3780;BME280;1905;52.482;9.802;2023-10-31T06:38:41;99055.56;;;12.19;93.30
3780;BME280;1905;52.482;9.802;2023-10-31T06:41:10;99061.59;;;12.21;93.32
3780;BME280;1905;52.482;9.802;2023-10-31T06:43:38;99063.50;;;12.19;93.30
3780;BME280;1905;52.482;9.802;2023-10-31T06:46:06;99068.81;;;12.19;93.17
3780;BME280;1905;52.482;9.802;2023-10-31T06:48:33;99075.19;;;12.17;93.06
3780;BME280;1905;52.482;9.802;2023-10-31T06:51:01;99064.69;;;12.15;92.69
3780;BME280;1905;52.482;9.802;2023-10-31T06:53:29;99079.75;;;12.15;93.20
3780;BME280;1905;52.482;9.802;2023-10-31T06:55:57;99085.38;;;12.10;92.70
3780;BME280;1905;52.482;9.802;2023-10-31T06:58:26;99079.84;;;12.13;93.28
3780;BME280;1905;52.482;9.802;2023-10-31T07:00:53;99077.44;;;12.10;93.36
3780;BME280;1905;52.482;9.802;2023-10-31T07:03:21;99087.06;;;12.11;93.35
3780;BME280;1905;52.482;9.802;2023-10-31T07:05:49;99094.28;;;12.09;93.67
3780;BME280;1905;52.482;9.802;2023-10-31T07:08:17;99102.94;;;12.11;92.94
3780;BME280;1905;52.482;9.802;2023-10-31T07:10:44;99095.00;;;12.11;93.16
3780;BME280;1905;52.482;9.802;2023-10-31T07:13:12;99101.38;;;12.09;93.29
3780;BME280;1905;52.482;9.802;2023-10-31T07:15:41;99107.84;;;12.05;92.72
3780;BME280;1905;52.482;9.802;2023-10-31T07:18:09;99096.41;;;12.04;93.72
3780;BME280;1905;52.482;9.802;2023-10-31T07:20:37;99101.69;;;12.04;93.76
3780;BME280;1905;52.482;9.802;2023-10-31T07:23:04;99107.75;;;12.06;93.27
3780;BME280;1905;52.482;9.802;2023-10-31T07:25:32;99108.47;;;12.08;93.31
3780;BME280;1905;52.482;9.802;2023-10-31T07:28:00;99103.28;;;12.07;93.70
3780;BME280;1905;52.482;9.802;2023-10-31T07:30:27;99104.88;;;12.09;93.37
3780;BME280;1905;52.482;9.802;2023-10-31T07:32:56;99103.41;;;12.05;93.01
3780;BME280;1905;52.482;9.802;2023-10-31T07:35:23;99100.97;;;12.02;93.13
3780;BME280;1905;52.482;9.802;2023-10-31T07:37:51;99096.41;;;12.04;92.80
3780;BME280;1905;52.482;9.802;2023-10-31T07:40:19;99103.41;;;12.05;93.55
3780;BME280;1905;52.482;9.802;2023-10-31T07:42:46;99109.41;;;12.07;93.20
3780;BME280;1905;52.482;9.802;2023-10-31T07:45:14;99109.31;;;12.09;92.88
3780;BME280;1905;52.482;9.802;2023-10-31T07:47:42;99108.69;;;12.05;92.79
3780;BME280;1905;52.482;9.802;2023-10-31T07:50:11;99119.41;;;12.04;93.43
3780;BME280;1905;52.482;9.802;2023-10-31T07:52:39;99117.56;;;12.04;93.66
3780;BME280;1905;52.482;9.802;2023-10-31T07:55:07;99120.97;;;12.06;93.15
3780;BME280;1905;52.482;9.802;2023-10-31T07:57:40;99119.28;;;12.05;93.34
3780;BME280;1905;52.482;9.802;2023-10-31T08:00:09;99123.72;;;12.05;92.49
3780;BME280;1905;52.482;9.802;2023-10-31T08:02:38;99126.50;;;12.03;93.24
3780;BME280;1905;52.482;9.802;2023-10-31T08:05:07;99128.91;;;12.06;93.07
3780;BME280;1905;52.482;9.802;2023-10-31T08:07:37;99126.50;;;12.03;92.44
3780;BME280;1905;52.482;9.802;2023-10-31T08:10:06;99124.56;;;12.05;93.19
3780;BME280;1905;52.482;9.802;2023-10-31T08:12:33;99131.88;;;12.02;91.89
3780;BME280;1905;52.482;9.802;2023-10-31T08:15:01;99124.78;;;12.02;92.64
3780;BME280;1905;52.482;9.802;2023-10-31T08:17:29;99148.25;;;12.07;92.96
3780;BME280;1905;52.482;9.802;2023-10-31T08:19:57;99142.97;;;12.07;92.62
3780;BME280;1905;52.482;9.802;2023-10-31T08:22:25;99151.66;;;12.09;92.58
3780;BME280;1905;52.482;9.802;2023-10-31T08:24:54;99149.00;;;12.09;92.98
3780;BME280;1905;52.482;9.802;2023-10-31T08:27:22;99152.38;;;12.11;92.90
3780;BME280;1905;52.482;9.802;2023-10-31T08:29:49;99152.50;;;12.09;92.82
3780;BME280;1905;52.482;9.802;2023-10-31T08:32:17;99164.75;;;12.10;92.58
3780;BME280;1905;52.482;9.802;2023-10-31T08:34:45;99174.50;;;12.10;92.75
3780;BME280;1905;52.482;9.802;2023-10-31T08:37:13;99174.41;;;12.11;92.67
3780;BME280;1905;52.482;9.802;2023-10-31T08:39:40;99177.28;;;12.08;92.44
3780;BME280;1905;52.482;9.802;2023-10-31T08:42:09;99187.84;;;12.08;92.41
3780;BME280;1905;52.482;9.802;2023-10-31T08:44:39;99191.00;;;12.13;92.69
3780;BME280;1905;52.482;9.802;2023-10-31T08:47:08;99177.03;;;12.11;92.31
3780;BME280;1905;52.482;9.802;2023-10-31T08:49:35;99187.41;;;12.14;91.99
3780;BME280;1905;52.482;9.802;2023-10-31T08:52:03;99201.38;;;12.16;92.49
3780;BME280;1905;52.482;9.802;2023-10-31T08:54:31;99198.59;;;12.18;91.95
3780;BME280;1905;52.482;9.802;2023-10-31T08:56:59;99203.88;;;12.18;91.96
3780;BME280;1905;52.482;9.802;2023-10-31T08:59:28;99210.75;;;12.20;92.30
3780;BME280;1905;52.482;9.802;2023-10-31T09:01:56;99212.34;;;12.23;92.33
3780;BME280;1905;52.482;9.802;2023-10-31T09:04:23;99213.69;;;12.28;91.93
3780;BME280;1905;52.482;9.802;2023-10-31T09:06:51;99218.25;;;12.26;92.39
3780;BME280;1905;52.482;9.802;2023-10-31T09:09:19;99230.53;;;12.27;91.97
3780;BME280;1905;52.482;9.802;2023-10-31T09:11:46;99228.59;;;12.29;92.26
3780;BME280;1905;52.482;9.802;2023-10-31T09:14:14;99229.47;;;12.30;91.43
3780;BME280;1905;52.482;9.802;2023-10-31T09:16:43;99227.88;;;12.27;91.61
3780;BME280;1905;52.482;9.802;2023-10-31T09:19:11;99234.88;;;12.28;91.85
3780;BME280;1905;52.482;9.802;2023-10-31T09:21:39;99244.50;;;12.29;91.91
3780;BME280;1905;52.482;9.802;2023-10-31T09:24:08;99250.63;;;12.30;91.92
3780;BME280;1905;52.482;9.802;2023-10-31T09:26:36;99251.25;;;12.33;91.96
3780;BME280;1905;52.482;9.802;2023-10-31T09:29:04;99272.66;;;12.30;92.26
3780;BME280;1905;52.482;9.802;2023-10-31T09:31:32;99268.31;;;12.29;92.91
3780;BME280;1905;52.482;9.802;2023-10-31T09:34:02;99270.97;;;12.29;93.13
3780;BME280;1905;52.482;9.802;2023-10-31T09:36:31;99279.88;;;12.28;92.88
3780;BME280;1905;52.482;9.802;2023-10-31T09:39:02;99281.56;;;12.29;93.23
3780;BME280;1905;52.482;9.802;2023-10-31T09:41:30;99290.47;;;12.28;93.39
3780;BME280;1905;52.482;9.802;2023-10-31T09:43:58;99286.84;;;12.29;93.12
3780;BME280;1905;52.482;9.802;2023-10-31T09:46:26;99291.91;;;12.32;93.18
3780;BME280;1905;52.482;9.802;2023-10-31T09:48:56;99295.75;;;12.28;93.35
3780;BME280;1905;52.482;9.802;2023-10-31T09:51:25;99303.44;;;12.31;93.27
3780;BME280;1905;52.482;9.802;2023-10-31T09:53:54;99307.16;;;12.29;93.67
3780;BME280;1905;52.482;9.802;2023-10-31T09:56:22;99308.03;;;12.29;93.49
3780;BME280;1905;52.482;9.802;2023-10-31T09:58:51;99308.16;;;12.28;93.16
3780;BME280;1905;52.482;9.802;2023-10-31T10:01:19;99315.03;;;12.30;93.46
3780;BME280;1905;52.482;9.802;2023-10-31T10:03:47;99327.75;;;12.25;93.13
3780;BME280;1905;52.482;9.802;2023-10-31T10:06:15;99328.47;;;12.27;93.51
3780;BME280;1905;52.482;9.802;2023-10-31T10:08:45;99334.72;;;12.26;92.37
3780;BME280;1905;52.482;9.802;2023-10-31T10:11:12;99340.75;;;12.28;92.96
3780;BME280;1905;52.482;9.802;2023-10-31T10:13:40;99341.72;;;12.27;92.86
3780;BME280;1905;52.482;9.802;2023-10-31T10:16:09;99345.53;;;12.23;92.33
3780;BME280;1905;52.482;9.802;2023-10-31T10:18:36;99364.03;;;12.23;91.90
3780;BME280;1905;52.482;9.802;2023-10-31T10:21:07;99363.31;;;12.21;92.10
3780;BME280;1905;52.482;9.802;2023-10-31T10:23:35;99359.50;;;12.25;92.31
3780;BME280;1905;52.482;9.802;2023-10-31T10:26:04;99365.63;;;12.26;92.75
3780;BME280;1905;52.482;9.802;2023-10-31T10:28:32;99368.28;;;12.26;92.54
3780;BME280;1905;52.482;9.802;2023-10-31T10:31:00;99374.84;;;12.20;92.92
3780;BME280;1905;52.482;9.802;2023-10-31T10:33:27;99377.28;;;12.23;93.49
3780;BME280;1905;52.482;9.802;2023-10-31T10:35:55;99384.28;;;12.24;93.02
3780;BME280;1905;52.482;9.802;2023-10-31T10:38:23;99384.28;;;12.24;93.55
3780;BME280;1905;52.482;9.802;2023-10-31T10:40:53;99380.91;;;12.22;93.39
3780;BME280;1905;52.482;9.802;2023-10-31T10:43:25;99384.78;;;12.29;93.01
3780;BME280;1905;52.482;9.802;2023-10-31T10:45:55;99389.34;;;12.27;93.02
3780;BME280;1905;52.482;9.802;2023-10-31T10:48:24;99386.28;;;12.21;93.27
3780;BME280;1905;52.482;9.802;2023-10-31T10:50:58;99388.41;;;12.28;93.03
3780;BME280;1905;52.482;9.802;2023-10-31T10:53:30;99393.16;;;12.23;93.47
3780;BME280;1905;52.482;9.802;2023-10-31T10:56:12;99392.94;;;12.26;93.16
3780;BME280;1905;52.482;9.802;2023-10-31T10:58:51;99392.22;;;12.24;93.22
3780;BME280;1905;52.482;9.802;2023-10-31T11:01:20;99395.09;;;12.21;93.89
3780;BME280;1905;52.482;9.802;2023-10-31T11:03:48;99394.88;;;12.24;93.88
3780;BME280;1905;52.482;9.802;2023-10-31T11:06:16;99394.88;;;12.24;94.23
3780;BME280;1905;52.482;9.802;2023-10-31T11:08:46;99402.69;;;12.26;93.98
3780;BME280;1905;52.482;9.802;2023-10-31T11:11:14;99407.16;;;12.25;94.14
3780;BME280;1905;52.482;9.802;2023-10-31T11:13:45;99418.47;;;12.27;94.23
3780;BME280;1905;52.482;9.802;2023-10-31T11:16:17;99421.13;;;12.27;94.17
3780;BME280;1905;52.482;9.802;2023-10-31T11:18:48;99425.47;;;12.28;94.19
3780;BME280;1905;52.482;9.802;2023-10-31T11:21:16;99418.88;;;12.34;93.67
3780;BME280;1905;52.482;9.802;2023-10-31T11:23:44;99426.28;;;12.29;94.10
3780;BME280;1905;52.482;9.802;2023-10-31T11:26:11;99429.59;;;12.32;94.31
3780;BME280;1905;52.482;9.802;2023-10-31T11:28:39;99433.94;;;12.33;93.42
3780;BME280;1905;52.482;9.802;2023-10-31T11:31:09;99434.66;;;12.35;93.73
3780;BME280;1905;52.482;9.802;2023-10-31T11:33:38;99445.91;;;12.39;93.48
3780;BME280;1905;52.482;9.802;2023-10-31T11:36:07;99442.91;;;12.43;93.43
3780;BME280;1905;52.482;9.802;2023-10-31T11:38:36;99437.81;;;12.40;93.26
3780;BME280;1905;52.482;9.802;2023-10-31T11:41:05;99443.84;;;12.42;93.66
3780;BME280;1905;52.482;9.802;2023-10-31T11:43:36;99442.69;;;12.46;93.69
3780;BME280;1905;52.482;9.802;2023-10-31T11:46:19;99447.78;;;12.49;93.50
3780;BME280;1905;52.482;9.802;2023-10-31T11:48:50;99445.22;;;12.48;93.46
3780;BME280;1905;52.482;9.802;2023-10-31T11:51:18;99443.41;;;12.48;93.33
3780;BME280;1905;52.482;9.802;2023-10-31T11:53:47;99452.84;;;12.52;93.20
3780;BME280;1905;52.482;9.802;2023-10-31T11:56:19;99451.66;;;12.57;93.57
3780;BME280;1905;52.482;9.802;2023-10-31T11:58:55;99446.38;;;12.57;93.15
3780;BME280;1905;52.482;9.802;2023-10-31T12:01:24;99443.72;;;12.57;92.83
3780;BME280;1905;52.482;9.802;2023-10-31T12:03:52;99447.72;;;12.62;92.75
3780;BME280;1905;52.482;9.802;2023-10-31T12:06:20;99453.03;;;12.62;92.81
3780;BME280;1905;52.482;9.802;2023-10-31T12:08:48;99452.31;;;12.60;92.29
3780;BME280;1905;52.482;9.802;2023-10-31T12:11:18;99454.09;;;12.60;92.14
3780;BME280;1905;52.482;9.802;2023-10-31T12:13:55;99453.03;;;12.62;92.28
3780;BME280;1905;52.482;9.802;2023-10-31T12:16:26;99453.44;;;12.69;91.79
3780;BME280;1905;52.482;9.802;2023-10-31T12:18:55;99455.59;;;12.64;92.18
3780;BME280;1905;52.482;9.802;2023-10-31T12:21:37;99469.34;;;12.69;91.70
3780;BME280;1905;52.482;9.802;2023-10-31T12:24:06;99468.72;;;12.65;91.65
3780;BME280;1905;52.482;9.802;2023-10-31T12:26:34;99474.84;;;12.66;92.18
3780;BME280;1905;52.482;9.802;2023-10-31T12:29:09;99467.75;;;12.66;92.48
3780;BME280;1905;52.482;9.802;2023-10-31T12:31:44;99469.56;;;12.66;91.72
3780;BME280;1905;52.482;9.802;2023-10-31T12:34:13;99470.41;;;12.66;91.54
3780;BME280;1905;52.482;9.802;2023-10-31T12:36:41;99470.50;;;12.65;92.10
3780;BME280;1905;52.482;9.802;2023-10-31T12:39:11;99490.63;;;12.67;91.60
3780;BME280;1905;52.482;9.802;2023-10-31T12:41:40;99475.47;;;12.69;91.82
3780;BME280;1905;52.482;9.802;2023-10-31T12:44:08;99477.88;;;12.72;92.09
3780;BME280;1905;52.482;9.802;2023-10-31T12:46:39;99488.81;;;12.68;91.47
3780;BME280;1905;52.482;9.802;2023-10-31T12:49:12;99477.06;;;12.72;91.41
3780;BME280;1905;52.482;9.802;2023-10-31T12:51:55;99496.34;;;12.74;91.56
3780;BME280;1905;52.482;9.802;2023-10-31T12:54:27;99486.69;;;12.73;91.61
3780;BME280;1905;52.482;9.802;2023-10-31T12:56:59;99488.41;;;12.74;91.59
3780;BME280;1905;52.482;9.802;2023-10-31T12:59:26;99497.94;;;12.76;91.82
3780;BME280;1905;52.482;9.802;2023-10-31T13:01:54;99496.34;;;12.74;91.62
3780;BME280;1905;52.482;9.802;2023-10-31T13:04:27;99497.06;;;12.76;91.58
3780;BME280;1905;52.482;9.802;2023-10-31T13:06:57;99502.16;;;12.79;91.63
3780;BME280;1905;52.482;9.802;2023-10-31T13:09:28;99511.25;;;12.75;91.16
3780;BME280;1905;52.482;9.802;2023-10-31T13:11:57;99508.19;;;12.81;91.25
3780;BME280;1905;52.482;9.802;2023-10-31T13:14:25;99509.16;;;12.80;92.01
3780;BME280;1905;52.482;9.802;2023-10-31T13:16:53;99511.69;;;12.81;91.51
3780;BME280;1905;52.482;9.802;2023-10-31T13:19:20;99524.81;;;12.83;91.05
3780;BME280;1905;52.482;9.802;2023-10-31T13:21:49;99528.00;;;12.88;91.62
3780;BME280;1905;52.482;9.802;2023-10-31T13:24:17;99521.84;;;12.87;91.40
3780;BME280;1905;52.482;9.802;2023-10-31T13:26:46;99528.00;;;12.88;91.09
3780;BME280;1905;52.482;9.802;2023-10-31T13:29:18;99538.47;;;12.89;91.12